Time;durP1;ratioP1;P1;durP2;ratioP2;P2;SDS_P1;SDS_P2;PMS_P1;PMS_P2;Temp;Humidity;BMP_temperature;BMP_pressure;BME280_temperature;BME280_humidity;BME280_pressure;Samples;Min_cycle;Max_cycle;Signal;HPM_P1;HPM_P2
2022/12/19 00:02:04;;;;;;;67.90;31.73;;;;;;;0.81;100.00;101494.13;5055606;28;20171;-62
2022/12/19 00:04:30;;;;;;;66.93;31.85;;;;;;;0.54;100.00;101445.28;5055359;28;20214;-62
2022/12/19 00:06:57;;;;;;;67.70;32.92;;;;;;;0.55;100.00;101440.13;5020770;28;20067;-64
2022/12/19 00:09:23;;;;;;;74.97;32.55;;;;;;;0.94;100.00;101506.44;5037546;28;20037;-63
2022/12/19 00:11:48;;;;;;;73.18;33.28;;;;;;;0.82;100.00;101480.31;5037491;28;20399;-62
2022/12/19 00:14:13;;;;;;;75.32;32.40;;;;;;;0.74;100.00;101482.78;5055110;28;20041;-61
2022/12/19 00:16:39;;;;;;;67.82;32.45;;;;;;;0.93;100.00;101518.56;5036991;28;20056;-62
2022/12/19 00:19:04;;;;;;;71.05;32.85;;;;;;;0.94;100.00;101516.81;5055182;28;20048;-62
2022/12/19 00:21:31;;;;;;;70.22;32.80;;;;;;;0.93;100.00;101499.53;5037173;28;20047;-62
2022/12/19 00:23:57;;;;;;;68.70;30.40;;;;;;;0.89;100.00;101485.66;5037232;28;20079;-63
2022/12/19 00:26:28;;;;;;;65.18;32.25;;;;;;;1.00;100.00;101475.44;5037142;28;20068;-62
2022/12/19 00:28:57;;;;;;;62.78;31.05;;;;;;;0.74;100.00;101410.22;5055383;28;20064;-61
2022/12/19 00:31:23;;;;;;;61.38;30.88;;;;;;;1.06;100.00;101463.47;5054720;28;20083;-64
2022/12/19 00:33:49;;;;;;;62.88;31.35;;;;;;;0.67;100.00;101386.81;5054672;28;20032;-61
2022/12/19 00:36:20;;;;;;;64.55;32.85;;;;;;;0.71;100.00;101394.63;5054573;28;20472;-60
2022/12/19 00:38:46;;;;;;;70.97;33.58;;;;;;;1.12;100.00;101462.69;5054665;28;20425;-61
2022/12/19 00:41:16;;;;;;;71.18;32.85;;;;;;;1.14;100.00;101453.19;5054422;28;20362;-62
2022/12/19 00:43:42;;;;;;;65.30;32.13;;;;;;;1.08;100.00;101442.75;5054300;28;20029;-62
2022/12/19 00:46:10;;;;;;;64.35;30.70;;;;;;;0.82;100.00;101384.44;5054599;28;20029;-61
2022/12/19 00:48:36;;;;;;;68.97;32.97;;;;;;;1.14;100.00;101433.34;5053192;28;20135;-61
2022/12/19 00:51:10;;;;;;;72.75;32.20;;;;;;;1.19;100.00;101455.88;5054635;28;20523;-61
2022/12/19 00:53:36;;;;;;;74.63;34.47;;;;;;;0.85;100.00;101387.94;5054325;28;20025;-62
2022/12/19 00:56:26;;;;;;;76.53;32.47;;;;;;;0.74;100.00;101345.44;5054592;28;20033;-61
2022/12/19 00:58:52;;;;;;;74.78;33.67;;;;;;;0.92;100.00;101370.78;5054345;28;20531;-61
2022/12/19 01:01:23;;;;;;;80.78;35.42;;;;;;;1.25;100.00;101428.34;5054347;28;20113;-62
2022/12/19 01:03:48;;;;;;;66.75;33.40;;;;;;;0.89;100.00;101350.00;5036091;28;20082;-60
2022/12/19 01:06:14;;;;;;;69.13;33.28;;;;;;;1.29;100.00;101418.84;5019685;28;20037;-64
2022/12/19 01:08:40;;;;;;;77.55;33.33;;;;;;;0.93;100.00;101346.63;5054306;28;20028;-61
2022/12/19 01:11:06;;;;;;;76.18;35.58;;;;;;;1.32;100.00;101409.41;5054301;28;20025;-63
2022/12/19 01:13:32;;;;;;;78.32;35.25;;;;;;;1.32;100.00;101411.13;5036317;28;20403;-61
2022/12/19 01:16:06;;;;;;;83.05;36.60;;;;;;;0.97;100.00;101350.97;5053607;28;20059;-60
2022/12/19 01:18:31;;;;;;;82.05;36.67;;;;;;;1.39;100.00;101413.81;5035839;28;20079;-61
2022/12/19 01:21:02;;;;;;;79.55;35.92;;;;;;;1.03;100.00;101346.75;5053712;28;20041;-60
2022/12/19 01:23:27;;;;;;;75.40;34.95;;;;;;;1.00;100.00;101331.16;5053973;28;20024;-60
2022/12/19 01:25:53;;;;;;;80.10;33.47;;;;;;;1.51;100.00;101405.34;5053730;28;20033;-60
2022/12/19 01:28:19;;;;;;;74.72;34.70;;;;;;;1.47;100.00;101385.38;5035837;28;20480;-60
2022/12/19 01:30:44;;;;;;;71.57;34.65;;;;;;;1.61;100.00;101400.28;5036015;28;20058;-59
2022/12/19 01:33:11;;;;;;;76.07;35.58;;;;;;;1.30;100.00;101335.00;5035739;28;20079;-60
2022/12/19 01:35:37;;;;;;;73.50;33.78;;;;;;;1.35;100.00;101334.22;5035684;28;20033;-61
2022/12/19 01:38:03;;;;;;;73.57;35.45;;;;;;;1.70;100.00;101403.00;5053713;28;20032;-61
2022/12/19 01:40:28;;;;;;;74.45;35.65;;;;;;;1.73;100.00;101385.72;5053322;28;20041;-61
2022/12/19 01:42:53;;;;;;;76.13;35.72;;;;;;;1.36;100.00;101309.16;5053465;28;20029;-62
2022/12/19 01:45:23;;;;;;;72.78;35.95;;;;;;;1.44;100.00;101329.16;5053364;28;20037;-59
2022/12/19 01:48:06;;;;;;;73.57;35.43;;;;;;;1.75;100.00;101358.94;5053144;28;20094;-60
2022/12/19 01:50:37;;;;;;;72.10;34.47;;;;;;;1.49;100.00;101308.47;5053192;28;20327;-59
2022/12/19 01:53:04;;;;;;;71.68;35.05;;;;;;;1.86;100.00;101365.13;5035613;28;20067;-61
2022/12/19 01:55:30;;;;;;;75.63;35.55;;;;;;;1.79;100.00;101345.13;5053110;28;20029;-60
2022/12/19 01:57:56;;;;;;;69.43;35.00;;;;;;;1.45;100.00;101286.81;5035287;28;20392;-60
2022/12/19 02:00:21;;;;;;;71.50;34.40;;;;;;;1.94;100.00;101360.00;5034782;28;20115;-60
2022/12/19 02:02:58;;;;;;;74.15;34.92;;;;;;;1.59;100.00;101287.81;5018510;28;20116;-61
2022/12/19 02:05:24;;;;;;;71.78;35.67;;;;;;;2.00;100.00;101350.56;5035114;28;20063;-59
2022/12/19 02:07:50;;;;;;;73.28;35.25;;;;;;;2.04;100.00;101354.91;5018617;28;20064;-59
2022/12/19 02:10:15;;;;;;;72.47;34.67;;;;;;;2.05;100.00;101345.41;5053088;28;20033;-60
2022/12/19 02:12:42;;;;;;;69.15;34.72;;;;;;;1.77;100.00;101292.34;5052858;28;20037;-60
2022/12/19 02:15:08;;;;;;;73.93;34.38;;;;;;;2.10;100.00;101335.97;5035056;28;20243;-60
2022/12/19 02:17:43;;;;;;;77.82;34.28;;;;;;;2.11;100.00;101322.97;5031733;28;20057;-59
2022/12/19 02:20:30;;;;;;;76.85;34.40;;;;;;;2.17;100.00;101314.38;5031754;28;20362;-61
2022/12/19 02:23:01;;;;;;;73.82;35.25;;;;;;;2.23;100.00;101319.63;5032973;28;20033;-59
2022/12/19 02:25:57;;;;;;;70.05;33.47;;;;;;;2.34;100.00;101314.50;5032387;28;20033;-60
2022/12/19 02:28:53;;;;;;;68.60;34.05;;;;;;;2.31;100.00;101285.94;5032931;28;20040;-60
2022/12/19 02:31:29;;;;;;;73.45;32.78;;;;;;;2.30;100.00;101289.38;5031931;28;20033;-60
2022/12/19 02:34:15;;;;;;;78.60;33.58;;;;;;;2.26;100.00;101272.91;5032588;28;20029;-60
2022/12/19 02:36:49;;;;;;;73.07;34.95;;;;;;;2.38;100.00;101296.38;5031493;28;20087;-61
2022/12/19 02:39:25;;;;;;;77.63;33.85;;;;;;;1.90;100.00;101200.75;5032579;28;20037;-59
2022/12/19 02:41:55;;;;;;;69.50;33.20;;;;;;;2.32;100.00;101266.88;5031244;28;20472;-60
2022/12/19 02:44:48;;;;;;;69.78;33.33;;;;;;;2.44;100.00;101283.44;5032494;28;20042;-60
2022/12/19 02:47:13;;;;;;;62.60;30.80;;;;;;;2.02;100.00;101207.75;5014512;28;20029;-61
2022/12/19 02:49:39;;;;;;;63.10;29.73;;;;;;;2.48;100.00;101277.38;5030912;28;20041;-60
2022/12/19 02:52:12;;;;;;;68.25;32.47;;;;;;;2.40;100.00;101257.41;5032301;28;20061;-59
2022/12/19 02:54:38;;;;;;;67.07;30.42;;;;;;;2.55;100.00;101261.00;5030936;28;20026;-60
2022/12/19 02:57:19;;;;;;;63.45;30.30;;;;;;;2.55;100.00;101254.91;5031192;28;20155;-59
2022/12/19 02:59:50;;;;;;;59.35;30.02;;;;;;;2.61;100.00;101271.44;5031122;28;20033;-61
2022/12/19 03:02:34;;;;;;;63.83;30.45;;;;;;;2.61;100.00;101252.38;5032267;28;20424;-60
2022/12/19 03:05:07;;;;;;;64.28;31.45;;;;;;;2.68;100.00;101257.63;5032087;28;20472;-61
2022/12/19 03:07:40;;;;;;;57.38;29.48;;;;;;;2.27;100.00;101170.75;5030742;28;20033;-60
2022/12/19 03:10:35;;;;;;;55.00;29.20;;;;;;;2.68;100.00;101235.97;5031954;28;20431;-60
2022/12/19 03:13:30;;;;;;;54.15;28.33;;;;;;;2.86;100.00;101267.22;5031988;28;20039;-59
2022/12/19 03:15:57;;;;;;;54.28;27.27;;;;;;;2.58;100.00;101198.66;5037766;28;20059;-59
2022/12/19 03:18:22;;;;;;;50.70;26.50;;;;;;;2.96;100.00;101261.25;5034215;28;20040;-59
2022/12/19 03:20:59;;;;;;;46.53;24.27;;;;;;;2.73;100.00;101208.25;5034535;28;20395;-62
2022/12/19 03:23:24;;;;;;;47.13;24.35;;;;;;;3.07;100.00;101251.75;5034235;28;20408;-59
2022/12/19 03:25:55;;;;;;;46.05;25.20;;;;;;;2.87;100.00;101208.31;5051674;28;20033;-59
2022/12/19 03:28:26;;;;;;;41.45;23.42;;;;;;;2.96;100.00;101218.75;5051609;28;20055;-60
2022/12/19 03:30:52;;;;;;;44.63;22.73;;;;;;;3.13;100.00;101227.50;5051590;28;20547;-60
2022/12/19 03:33:19;;;;;;;38.75;23.17;;;;;;;3.23;100.00;101243.16;5051659;28;20040;-60
2022/12/19 03:35:45;;;;;;;43.75;24.17;;;;;;;3.19;100.00;101235.31;5033848;28;20079;-60
2022/12/19 03:38:11;;;;;;;42.80;23.85;;;;;;;2.81;100.00;101171.03;5051703;28;20439;-60
2022/12/19 03:40:38;;;;;;;37.50;23.27;;;;;;;3.28;100.00;101240.56;5050992;28;20378;-61
2022/12/19 03:43:08;;;;;;;37.65;22.45;;;;;;;3.30;100.00;101220.63;5034134;28;20120;-57
2022/12/19 03:45:54;;;;;;;37.63;21.48;;;;;;;3.42;100.00;101234.53;5034139;28;20115;-61
2022/12/19 03:48:41;;;;;;;41.95;23.10;;;;;;;3.45;100.00;101238.88;5051658;28;20029;-61
2022/12/19 03:51:33;;;;;;;36.72;22.90;;;;;;;3.49;100.00;101242.38;5051743;28;20033;-59
2022/12/19 03:54:19;;;;;;;34.20;21.85;;;;;;;3.56;100.00;101226.75;5033939;28;20033;-61
2022/12/19 03:57:13;;;;;;;32.25;21.20;;;;;;;3.63;100.00;101238.06;5033507;28;20029;-60
2022/12/19 03:59:45;;;;;;;34.10;21.83;;;;;;;3.31;100.00;101162.53;5051440;28;20067;-59
2022/12/19 04:02:12;;;;;;;32.97;21.45;;;;;;;3.85;100.00;101226.84;5034226;28;20112;-60
2022/12/19 04:04:43;;;;;;;29.95;21.10;;;;;;;3.87;100.00;101232.91;5016804;28;20033;-59
2022/12/19 04:07:09;;;;;;;30.73;20.27;;;;;;;3.96;100.00;101219.91;5033491;28;20060;-60
2022/12/19 04:09:35;;;;;;;28.90;20.48;;;;;;;3.69;100.00;101153.03;5033300;28;20048;-60
2022/12/19 04:12:03;;;;;;;28.63;19.58;;;;;;;3.89;100.00;101169.53;5034023;28;20053;-59
2022/12/19 04:14:31;;;;;;;31.85;20.52;;;;;;;3.73;100.00;101135.69;5017264;28;20041;-60
2022/12/19 04:17:03;;;;;;;32.28;21.90;;;;;;;4.19;100.00;101219.88;5033705;28;20049;-59
2022/12/19 04:19:33;;;;;;;30.77;21.70;;;;;;;3.87;100.00;101155.66;5051403;28;20033;-59
2022/12/19 04:22:08;;;;;;;33.35;22.17;;;;;;;3.75;100.00;101131.34;5051415;28;20033;-59
2022/12/19 04:24:35;;;;;;;31.42;21.58;;;;;;;3.72;100.00;101129.63;5036911;28;20025;-58
2022/12/19 04:27:02;;;;;;;31.25;21.30;;;;;;;4.18;100.00;101198.16;5037013;28;20060;-59
2022/12/19 04:29:30;;;;;;;33.60;21.90;;;;;;;3.87;100.00;101142.63;5054779;28;20040;-58
2022/12/19 04:31:56;;;;;;;32.40;22.05;;;;;;;3.89;100.00;101168.66;5036927;28;20055;-58
2022/12/19 04:34:21;;;;;;;31.80;21.65;;;;;;;3.88;100.00;101162.56;5054762;28;20033;-59
2022/12/19 04:36:47;;;;;;;30.90;21.73;;;;;;;4.21;100.00;101203.38;5054633;28;20037;-59
2022/12/19 04:39:12;;;;;;;28.92;19.08;;;;;;;4.30;100.00;101213.81;5036946;28;20052;-59
2022/12/19 04:41:38;;;;;;;31.58;20.48;;;;;;;4.39;100.00;101218.13;5036676;28;20542;-58
2022/12/19 04:44:03;;;;;;;30.95;18.23;;;;;;;4.38;100.00;101205.97;5054917;28;20033;-57
2022/12/19 04:46:29;;;;;;;25.75;18.58;;;;;;;4.40;100.00;101212.06;5054321;28;20045;-58
2022/12/19 04:48:54;;;;;;;25.88;18.42;;;;;;;4.50;100.00;101212.03;5054484;28;20029;-58
2022/12/19 04:51:20;;;;;;;25.73;17.52;;;;;;;4.11;100.00;101143.47;5054537;28;20041;-59
2022/12/19 04:53:45;;;;;;;27.88;18.17;;;;;;;4.63;100.00;101197.25;5054771;28;20377;-58
2022/12/19 04:56:10;;;;;;;22.65;17.35;;;;;;;4.30;100.00;101138.22;5054513;28;20392;-58
2022/12/19 04:58:36;;;;;;;30.10;17.90;;;;;;;4.75;100.00;101202.44;5036394;28;20044;-56
2022/12/19 05:01:06;;;;;;;25.25;17.38;;;;;;;4.39;100.00;101125.19;5054433;28;20029;-58
2022/12/19 05:03:32;;;;;;;24.48;17.80;;;;;;;4.86;100.00;101187.59;5036626;28;20029;-58
2022/12/19 05:06:08;;;;;;;25.55;17.73;;;;;;;4.87;100.00;101197.19;5036203;28;20119;-58
2022/12/19 05:08:35;;;;;;;25.00;18.02;;;;;;;4.85;100.00;101190.19;5053963;28;20121;-59
2022/12/19 05:11:01;;;;;;;25.75;17.25;;;;;;;4.92;100.00;101189.31;5036598;28;20041;-59
2022/12/19 05:13:27;;;;;;;28.45;17.50;;;;;;;4.95;100.00;101195.41;5054255;28;20476;-59
2022/12/19 05:16:01;;;;;;;26.10;17.52;;;;;;;4.99;100.00;101188.44;5054001;28;20060;-60
2022/12/19 05:18:26;;;;;;;25.85;17.45;;;;;;;4.62;100.00;101103.38;5054215;28;20040;-59
2022/12/19 05:20:52;;;;;;;27.00;17.85;;;;;;;4.66;100.00;101120.75;5036369;28;20029;-59
2022/12/19 05:23:17;;;;;;;25.40;18.17;;;;;;;5.11;100.00;101201.41;5054284;28;20091;-59
2022/12/19 05:25:43;;;;;;;27.80;20.33;;;;;;;5.14;100.00;101177.91;5053751;28;20365;-58
2022/12/19 05:28:08;;;;;;;27.25;18.85;;;;;;;4.81;100.00;101129.38;5053681;28;20581;-59
2022/12/19 05:30:33;;;;;;;29.60;19.77;;;;;;;4.80;100.00;101109.38;5053595;28;20037;-59
2022/12/19 05:32:59;;;;;;;28.50;20.13;;;;;;;5.24;100.00;101174.38;5053767;28;20496;-58
2022/12/19 05:35:24;;;;;;;28.73;19.77;;;;;;;5.31;100.00;101196.94;5034414;28;20120;-60
2022/12/19 05:37:49;;;;;;;28.08;19.38;;;;;;;5.27;100.00;101182.19;5053842;28;20072;-59
2022/12/19 05:40:15;;;;;;;30.83;20.08;;;;;;;4.89;100.00;101116.28;5035890;28;20061;-58
2022/12/19 05:42:40;;;;;;;34.05;20.70;;;;;;;5.24;100.00;101181.34;5053539;28;20098;-58
2022/12/19 05:45:06;;;;;;;35.90;20.65;;;;;;;5.22;100.00;101188.31;5035604;28;20045;-59
2022/12/19 05:47:31;;;;;;;25.80;18.85;;;;;;;4.79;100.00;101099.81;5053346;28;20060;-57
2022/12/19 05:49:56;;;;;;;27.95;19.52;;;;;;;5.20;100.00;101166.56;5053756;28;20037;-56
2022/12/19 05:52:23;;;;;;;29.13;20.10;;;;;;;5.32;100.00;101188.25;5053450;28;20029;-56
2022/12/19 05:54:48;;;;;;;26.75;19.70;;;;;;;5.33;100.00;101178.69;5053484;28;20082;-57
2022/12/19 05:57:14;;;;;;;29.65;19.80;;;;;;;5.31;100.00;101178.69;5053502;28;20033;-59
2022/12/19 05:59:39;;;;;;;33.33;20.65;;;;;;;5.27;100.00;101165.66;5053215;28;20033;-58
2022/12/19 06:02:04;;;;;;;31.02;20.63;;;;;;;5.44;100.00;101180.34;5017618;28;20033;-58
2022/12/19 06:04:30;;;;;;;28.52;19.52;;;;;;;5.19;100.00;101130.94;5032763;28;20033;-58
2022/12/19 06:06:55;;;;;;;32.33;19.67;;;;;;;5.54;100.00;101182.06;5033386;28;20033;-56
2022/12/19 06:09:20;;;;;;;29.70;20.02;;;;;;;5.51;100.00;101191.63;5032953;28;20041;-59
2022/12/19 06:11:46;;;;;;;36.90;20.65;;;;;;;5.23;100.00;101133.50;5032892;28;20034;-58
2022/12/19 06:14:11;;;;;;;26.48;18.38;;;;;;;5.53;100.00;101180.31;5033226;28;20420;-56
2022/12/19 06:16:36;;;;;;;30.30;19.83;;;;;;;5.64;100.00;101169.78;5032872;28;20065;-58
2022/12/19 06:19:02;;;;;;;29.25;18.40;;;;;;;5.69;100.00;101186.31;5032765;28;20091;-59
2022/12/19 06:21:27;;;;;;;25.98;18.67;;;;;;;5.69;100.00;101176.69;5032551;28;20095;-59
2022/12/19 06:23:53;;;;;;;27.05;18.63;;;;;;;5.69;100.00;101171.47;5032819;28;20461;-58
2022/12/19 06:26:19;;;;;;;24.90;17.38;;;;;;;5.66;100.00;101186.31;5012907;28;20412;-58
2022/12/19 06:28:48;;;;;;;25.48;18.00;;;;;;;5.71;100.00;101171.47;5015056;28;20055;-58
2022/12/19 06:31:14;;;;;;;27.50;19.60;;;;;;;5.70;100.00;101172.34;4999290;28;20041;-56
2022/12/19 06:33:40;;;;;;;26.38;18.13;;;;;;;5.74;100.00;101173.19;5015144;28;20037;-56
2022/12/19 06:36:25;;;;;;;31.02;20.40;;;;;;;5.75;100.00;101180.16;5014149;28;20075;-57
2022/12/19 06:38:52;;;;;;;28.73;19.33;;;;;;;5.77;100.00;101189.72;5011597;28;20489;-57
2022/12/19 06:44:04;;;;;;;31.63;19.27;;;;;;;5.86;100.00;101174.00;5021137;28;20092;-59
2022/12/19 06:46:30;;;;;;;27.48;18.98;;;;;;;5.82;100.00;101163.53;5032265;28;20033;-58
2022/12/19 06:48:55;;;;;;;21.17;17.15;;;;;;;5.78;100.00;101164.47;5032405;28;20534;-57
2022/12/19 06:51:21;;;;;;;23.77;16.83;;;;;;;5.85;100.00;101160.91;5032318;28;20116;-59
2022/12/19 06:53:46;;;;;;;24.95;16.33;;;;;;;5.94;100.00;101182.66;5032357;28;20392;-56
2022/12/19 06:56:13;;;;;;;23.55;16.02;;;;;;;5.44;100.00;101122.06;5031865;28;20160;-57
2022/12/19 06:58:38;;;;;;;20.67;15.57;;;;;;;5.41;100.00;101117.72;5014927;28;20033;-59
2022/12/19 07:01:03;;;;;;;23.85;16.67;;;;;;;5.76;100.00;101185.38;5032607;28;20044;-59
2022/12/19 07:03:40;;;;;;;22.20;15.98;;;;;;;5.85;100.00;101187.03;5014640;28;20036;-58
2022/12/19 07:06:06;;;;;;;21.67;14.43;;;;;;;5.47;100.00;101122.91;4998230;28;20029;-57
2022/12/19 07:08:31;;;;;;;21.55;14.82;;;;;;;5.93;100.00;101201.81;5014620;28;20042;-59
2022/12/19 07:10:57;;;;;;;20.10;14.80;;;;;;;5.97;100.00;101195.69;5014423;28;20061;-56
2022/12/19 07:13:23;;;;;;;19.45;14.18;;;;;;;5.95;100.00;101183.53;5032180;28;20045;-58
2022/12/19 07:15:49;;;;;;;20.40;14.50;;;;;;;5.95;100.00;101193.97;5031813;28;20404;-59
2022/12/19 07:18:14;;;;;;;22.15;13.82;;;;;;;5.92;100.00;101207.94;5032212;28;20388;-57
2022/12/19 07:20:41;;;;;;;20.85;13.50;;;;;;;5.87;100.00;101183.56;5014546;28;20034;-59
2022/12/19 07:23:10;;;;;;;19.17;13.73;;;;;;;5.87;100.00;101175.72;5031684;28;20469;-59
2022/12/19 07:25:36;;;;;;;18.05;13.93;;;;;;;5.94;100.00;101184.38;5014369;28;20037;-55
2022/12/19 07:28:02;;;;;;;18.15;12.98;;;;;;;5.96;100.00;101191.34;5014251;28;20026;-57
2022/12/19 07:30:27;;;;;;;18.00;12.63;;;;;;;5.97;100.00;101205.28;4997837;28;20560;-57
2022/12/19 07:32:53;;;;;;;16.88;12.80;;;;;;;6.01;100.00;101209.59;5031783;28;20037;-56
2022/12/19 07:35:18;;;;;;;16.63;11.50;;;;;;;5.72;100.00;101165.34;4996684;28;20044;-57
2022/12/19 07:37:43;;;;;;;17.05;12.95;;;;;;;5.59;100.00;101132.38;5030523;28;20116;-59
2022/12/19 07:40:10;;;;;;;18.08;11.98;;;;;;;5.93;100.00;101190.47;5031097;28;20034;-58
2022/12/19 07:42:35;;;;;;;19.38;12.20;;;;;;;6.10;100.00;101210.38;5029938;28;20072;-59
2022/12/19 07:45:00;;;;;;;17.95;12.90;;;;;;;5.87;100.00;101165.28;5013543;28;20436;-59
2022/12/19 07:47:26;;;;;;;19.55;12.30;;;;;;;5.36;100.00;101080.34;5031692;28;20436;-58
2022/12/19 07:49:52;;;;;;;14.57;11.93;;;;;;;5.63;100.00;101128.88;5031289;28;20521;-59
2022/12/19 07:52:17;;;;;;;17.40;13.18;;;;;;;6.14;100.00;101219.94;5031641;28;20040;-64
2022/12/19 07:54:42;;;;;;;16.90;11.40;;;;;;;6.14;100.00;101213.84;5031889;28;20468;-62
2022/12/19 07:57:08;;;;;;;14.63;11.63;;;;;;;6.13;100.00;101223.41;5033017;28;20449;-64
2022/12/19 07:59:33;;;;;;;15.00;11.15;;;;;;;6.11;100.00;101221.69;5035444;28;20036;-64
2022/12/19 08:01:59;;;;;;;15.00;11.57;;;;;;;5.74;100.00;101158.41;5035758;28;20068;-63
2022/12/19 08:04:24;;;;;;;15.13;11.73;;;;;;;5.94;100.00;101195.72;5035556;28;20068;-63
2022/12/19 08:06:49;;;;;;;16.05;11.57;;;;;;;6.20;100.00;101225.13;5035524;28;20396;-61
2022/12/19 08:09:15;;;;;;;16.35;11.55;;;;;;;5.96;100.00;101159.09;5034728;28;20124;-62
2022/12/19 08:11:40;;;;;;;17.42;10.80;;;;;;;6.33;100.00;101238.97;5035627;28;20034;-64
2022/12/19 08:14:05;;;;;;;14.05;11.10;;;;;;;5.97;100.00;101176.53;5017730;28;20041;-62
2022/12/19 08:16:31;;;;;;;14.90;11.10;;;;;;;5.83;100.00;101171.38;5034968;28;20416;-63
2022/12/19 08:18:56;;;;;;;14.95;10.93;;;;;;;5.90;100.00;101169.59;5017620;28;20033;-63
2022/12/19 08:21:22;;;;;;;15.35;10.88;;;;;;;6.29;100.00;101238.97;5034948;28;20037;-63
2022/12/19 08:23:47;;;;;;;19.05;12.05;;;;;;;6.16;100.00;101235.59;5017364;28;20124;-61
2022/12/19 08:26:15;;;;;;;14.27;11.77;;;;;;;6.20;100.00;101240.78;5034956;28;20041;-64
2022/12/19 08:28:41;;;;;;;14.63;11.43;;;;;;;5.68;100.00;101141.03;5001128;28;20026;-59
2022/12/19 08:31:12;;;;;;;13.85;10.75;;;;;;;6.28;100.00;101226.78;5017290;28;20377;-61
2022/12/19 08:33:37;;;;;;;15.95;11.80;;;;;;;6.31;100.00;101227.63;5035136;28;20428;-59
2022/12/19 08:36:05;;;;;;;18.88;11.30;;;;;;;5.93;100.00;101180.03;5034277;28;20095;-61
2022/12/19 08:38:30;;;;;;;13.35;9.98;;;;;;;6.38;100.00;101244.13;5034934;28;20052;-60
2022/12/19 08:40:55;;;;;;;17.15;11.15;;;;;;;6.41;100.00;101250.22;5017210;28;20472;-60
2022/12/19 08:43:21;;;;;;;12.95;11.00;;;;;;;6.39;100.00;101238.88;5035066;28;20033;-60
2022/12/19 08:45:47;;;;;;;13.60;10.07;;;;;;;6.17;100.00;101190.28;5016755;28;20044;-62
2022/12/19 08:48:13;;;;;;;14.75;10.80;;;;;;;6.50;100.00;101223.97;5017052;28;20487;-61
2022/12/19 08:50:38;;;;;;;14.43;10.07;;;;;;;6.11;100.00;101182.50;5034679;28;20041;-61
2022/12/19 08:53:03;;;;;;;15.85;10.35;;;;;;;6.18;100.00;101177.22;5034662;28;20033;-60
2022/12/19 08:55:28;;;;;;;11.98;9.85;;;;;;;6.64;100.00;101235.16;5033997;28;20037;-62
2022/12/19 08:57:54;;;;;;;14.77;9.80;;;;;;;6.55;100.00;101227.41;5032321;28;20131;-63
2022/12/19 09:00:20;;;;;;;15.45;10.30;;;;;;;6.65;100.00;101231.69;5033046;28;20030;-63
2022/12/19 09:02:46;;;;;;;13.05;10.02;;;;;;;6.49;100.00;101195.22;5014198;28;20037;-65
2022/12/19 09:05:11;;;;;;;11.10;9.85;;;;;;;6.66;100.00;101225.53;5031567;28;20056;-62
2022/12/19 09:07:38;;;;;;;15.70;9.82;;;;;;;6.64;100.00;101229.94;5032163;28;20095;-64
2022/12/19 09:10:04;;;;;;;12.60;9.52;;;;;;;6.61;100.00;101242.16;5030385;28;20037;-62
2022/12/19 09:12:30;;;;;;;11.43;9.10;;;;;;;6.55;100.00;101224.78;5033262;28;20029;-63
2022/12/19 09:14:55;;;;;;;10.43;8.80;;;;;;;6.24;100.00;101158.00;5033319;28;20052;-65
2022/12/19 09:17:20;;;;;;;11.35;9.43;;;;;;;6.35;100.00;101176.19;5032360;28;20045;-61
2022/12/19 09:19:45;;;;;;;9.77;8.57;;;;;;;6.66;100.00;101229.91;5015056;28;20493;-67
2022/12/19 09:22:11;;;;;;;12.38;9.73;;;;;;;6.78;100.00;101241.13;5033323;28;20038;-61
2022/12/19 09:24:36;;;;;;;15.35;9.85;;;;;;;6.89;100.00;101246.22;5033134;28;20401;-62
2022/12/19 09:27:01;;;;;;;14.05;9.30;;;;;;;6.70;100.00;101227.25;5032545;28;20084;-62
2022/12/19 09:29:27;;;;;;;9.82;7.78;;;;;;;6.61;100.00;101190.72;4999034;28;20026;-61
2022/12/19 09:31:52;;;;;;;12.57;9.13;;;;;;;6.98;100.00;101248.75;5015814;28;20579;-61
2022/12/19 09:34:18;;;;;;;14.02;9.32;;;;;;;6.95;100.00;101246.16;5033184;28;20048;-61
2022/12/19 09:36:44;;;;;;;11.85;9.10;;;;;;;6.54;100.00;101173.34;5032968;28;20079;-61
2022/12/19 09:39:11;;;;;;;11.52;8.93;;;;;;;6.47;100.00;101155.16;5032882;28;20033;-64
2022/12/19 09:41:51;;;;;;;13.02;8.90;;;;;;;7.02;100.00;101258.31;5015474;28;20025;-63
2022/12/19 09:44:22;;;;;;;13.65;9.00;;;;;;;6.95;100.00;101251.38;5032749;28;20041;-63
2022/12/19 09:46:58;;;;;;;13.07;9.18;;;;;;;6.96;100.00;101250.53;5027413;28;20048;-61
2022/12/19 09:49:26;;;;;;;13.07;9.73;;;;;;;6.61;100.00;101182.00;5011827;28;20108;-61
2022/12/19 09:51:58;;;;;;;14.13;8.82;;;;;;;6.72;100.00;101191.47;5012749;28;20061;-60
2022/12/19 09:54:30;;;;;;;11.70;9.10;;;;;;;6.73;100.00;101177.53;4994849;28;20080;-60
2022/12/19 09:56:59;;;;;;;10.02;8.88;;;;;;;6.74;100.00;101181.00;4994941;28;20034;-62
2022/12/19 09:59:31;;;;;;;12.02;8.90;;;;;;;7.19;100.00;101253.75;4994949;28;20041;-63
2022/12/19 10:02:29;;;;;;;11.93;8.55;;;;;;;7.20;100.00;101249.38;4995184;28;20068;-63
2022/12/19 10:05:02;;;;;;;8.93;8.02;;;;;;;7.25;100.00;101264.13;4968632;28;20475;-63
2022/12/19 10:07:27;;;;;;;11.50;8.20;;;;;;;7.31;100.00;101250.09;5012634;28;20084;-64
2022/12/19 10:09:53;;;;;;;8.95;7.95;;;;;;;7.18;100.00;101219.75;5018203;28;20069;-64
2022/12/19 10:12:29;;;;;;;10.45;7.82;;;;;;;7.42;100.00;101245.59;5032963;28;20116;-66
2022/12/19 10:15:16;;;;;;;9.05;7.55;;;;;;;7.47;100.00;101240.31;5014234;28;20045;-62
2022/12/19 10:18:00;;;;;;;9.50;7.47;;;;;;;7.47;100.00;101232.44;5009316;28;20049;-64
2022/12/19 10:20:29;;;;;;;8.55;7.05;;;;;;;7.51;100.00;101241.97;4991795;28;20042;-63
2022/12/19 10:23:15;;;;;;;9.15;6.88;;;;;;;7.52;100.00;101241.97;5010555;28;20034;-64
2022/12/19 10:25:41;;;;;;;8.75;6.47;;;;;;;7.55;100.00;101233.19;5011450;28;20412;-66
2022/12/19 10:28:24;;;;;;;10.45;6.25;;;;;;;7.56;100.00;101248.03;5011490;28;20034;-61
2022/12/19 10:31:01;;;;;;;6.75;6.03;;;;;;;7.19;100.00;101187.41;5011578;28;20045;-61
2022/12/19 10:33:52;;;;;;;7.43;6.03;;;;;;;7.28;100.00;101209.13;4994592;28;20029;-62
2022/12/19 10:36:17;;;;;;;8.15;6.15;;;;;;;7.58;100.00;101254.13;4994931;28;20473;-62
2022/12/19 10:38:53;;;;;;;9.07;6.25;;;;;;;7.49;100.00;101220.19;5011613;28;20065;-62
2022/12/19 10:41:23;;;;;;;9.63;6.15;;;;;;;7.57;100.00;101248.00;4994337;28;20052;-60
2022/12/19 10:44:09;;;;;;;8.98;6.97;;;;;;;7.54;100.00;101234.94;5012200;28;20038;-62
2022/12/19 10:46:34;;;;;;;10.85;6.22;;;;;;;7.58;100.00;101233.16;5011420;28;20036;-60
2022/12/19 10:49:00;;;;;;;8.43;6.95;;;;;;;7.57;100.00;101242.78;5011833;28;20398;-62
2022/12/19 10:51:27;;;;;;;7.80;6.18;;;;;;;7.55;100.00;101244.56;4993919;28;20041;-63
2022/12/19 10:53:58;;;;;;;6.57;5.80;;;;;;;7.55;100.00;101230.59;4993356;28;20113;-61
2022/12/19 10:56:26;;;;;;;7.05;6.25;;;;;;;7.59;100.00;101225.25;5010104;28;20034;-61
2022/12/19 10:59:00;;;;;;;8.57;6.28;;;;;;;7.61;100.00;101220.03;4992697;28;20050;-61
2022/12/19 11:01:27;;;;;;;9.02;6.00;;;;;;;7.56;100.00;101195.66;5011417;28;20037;-59
2022/12/19 11:04:10;;;;;;;8.23;5.55;;;;;;;7.73;100.00;101223.34;4993783;28;20422;-59
2022/12/19 11:07:02;;;;;;;6.35;5.75;;;;;;;7.80;100.00;101214.47;5011621;28;20381;-59
2022/12/19 11:09:36;;;;;;;10.50;6.43;;;;;;;7.90;100.00;101218.72;5011813;28;20030;-60
2022/12/19 11:12:13;;;;;;;6.57;5.97;;;;;;;7.53;100.00;101156.41;5011583;28;20026;-62
2022/12/19 11:14:41;;;;;;;8.38;5.80;;;;;;;7.80;100.00;101190.91;5011286;28;20046;-65
2022/12/19 11:17:23;;;;;;;7.35;5.85;;;;;;;7.53;100.00;101146.75;5011339;28;20085;-64
2022/12/19 11:19:48;;;;;;;6.80;5.65;;;;;;;7.97;100.00;101213.38;4993994;28;20453;-64
2022/12/19 11:22:17;;;;;;;8.82;5.85;;;;;;;7.65;100.00;101154.44;5011477;28;20116;-63
2022/12/19 11:24:45;;;;;;;8.30;6.20;;;;;;;7.93;100.00;101205.56;5010767;28;20029;-60